Time;durP1;ratioP1;P1;durP2;ratioP2;P2;SDS_P1;SDS_P2;PMS_P1;PMS_P2;Temp;Humidity;BMP_temperature;BMP_pressure;BME280_temperature;BME280_humidity;BME280_pressure;Samples;Min_cycle;Max_cycle;Signal;HPM_P1;HPM_P2
2024/02/29 00:01:21;;;;;;;36.13;22.27;;;24.30;51.60;;;;;;6099178;28;84707;-53
2024/02/29 00:04:21;;;;;;;35.05;21.75;;;24.30;51.50;;;;;;6103270;28;84396;-52
2024/02/29 00:07:22;;;;;;;42.35;21.25;;;24.30;52.20;;;;;;6100838;28;83370;-54
2024/02/29 00:10:23;;;;;;;32.80;20.77;;;24.30;51.70;;;;;;6101500;28;83463;-54
2024/02/29 00:13:23;;;;;;;30.90;19.50;;;24.40;51.60;;;;;;6099485;28;83690;-52
2024/02/29 00:16:24;;;;;;;29.92;19.52;;;24.30;51.60;;;;;;6100598;28;83159;-53
2024/02/29 00:19:25;;;;;;;30.55;18.35;;;24.30;51.60;;;;;;6101990;28;83417;-54
2024/02/29 00:22:25;;;;;;;32.05;19.42;;;24.30;51.70;;;;;;6101790;28;83275;-53
2024/02/29 00:25:26;;;;;;;26.70;18.52;;;24.30;51.60;;;;;;6100016;28;83339;-54
2024/02/29 00:28:27;;;;;;;26.10;18.02;;;24.20;51.70;;;;;;6081220;28;83239;-54
2024/02/29 00:31:27;;;;;;;28.13;17.50;;;24.30;51.60;;;;;;6088149;28;83109;-55
2024/02/29 00:34:28;;;;;;;27.95;16.55;;;24.30;51.50;;;;;;6090156;28;83392;-54
2024/02/29 00:37:28;;;;;;;26.83;17.10;;;24.20;51.60;;;;;;6086329;28;83400;-54
2024/02/29 00:40:29;;;;;;;26.73;15.77;;;24.20;51.50;;;;;;6079499;28;83659;-53
2024/02/29 00:43:30;;;;;;;24.63;16.23;;;24.20;51.50;;;;;;6080066;28;83875;-55
2024/02/29 00:46:30;;;;;;;24.10;16.63;;;24.20;51.50;;;;;;6080233;28;83876;-55
2024/02/29 00:49:32;;;;;;;25.10;15.77;;;24.20;51.60;;;;;;6080031;28;83017;-52
2024/02/29 00:52:32;;;;;;;21.08;14.02;;;24.20;51.60;;;;;;6094327;28;83812;-54
2024/02/29 00:55:33;;;;;;;22.50;13.68;;;24.20;52.20;;;;;;6081610;28;84426;-55
2024/02/29 00:58:33;;;;;;;21.73;14.30;;;24.20;51.60;;;;;;6085396;28;83506;-54
2024/02/29 01:01:34;;;;;;;18.42;12.35;;;24.30;51.80;;;;;;6082069;28;83031;-55
2024/02/29 01:04:34;;;;;;;20.25;12.82;;;24.20;51.70;;;;;;6090048;28;83083;-55
2024/02/29 01:07:36;;;;;;;22.60;13.75;;;24.20;51.60;;;;;;6091463;28;83363;-53
2024/02/29 01:10:37;;;;;;;20.88;12.70;;;24.20;51.50;;;;;;6079109;28;83554;-53
2024/02/29 01:13:37;;;;;;;18.05;11.82;;;24.20;51.40;;;;;;6087695;28;82955;-56
2024/02/29 01:16:38;;;;;;;17.55;11.35;;;24.20;51.50;;;;;;6089905;28;83550;-51
2024/02/29 01:19:38;;;;;;;17.38;11.05;;;24.20;51.60;;;;;;6084997;28;83324;-54
2024/02/29 01:22:39;;;;;;;17.30;11.80;;;24.30;51.70;;;;;;6079381;28;83400;-53
2024/02/29 01:25:40;;;;;;;15.77;10.57;;;24.20;51.50;;;;;;6079183;28;84101;-53
2024/02/29 01:28:40;;;;;;;17.33;11.75;;;24.20;51.60;;;;;;6089597;28;83199;-54
2024/02/29 01:31:41;;;;;;;20.08;12.57;;;24.20;51.60;;;;;;6102068;28;82913;-54
2024/02/29 01:34:41;;;;;;;13.32;9.57;;;24.20;51.60;;;;;;6079933;28;82985;-54
2024/02/29 01:37:42;;;;;;;15.75;10.20;;;24.20;51.70;;;;;;6101732;28;83003;-54
2024/02/29 01:40:42;;;;;;;14.18;9.63;;;24.20;51.60;;;;;;6082106;28;83239;-55
2024/02/29 01:43:43;;;;;;;14.63;10.15;;;24.20;51.50;;;;;;6086852;28;83408;-53
2024/02/29 01:46:43;;;;;;;16.75;10.90;;;24.20;51.60;;;;;;6088257;28;83330;-53
2024/02/29 01:49:44;;;;;;;14.82;10.35;;;24.20;51.80;;;;;;6097713;28;83207;-51
2024/02/29 01:52:45;;;;;;;15.48;11.07;;;24.20;51.50;;;;;;6091045;28;83336;-50
2024/02/29 01:55:45;;;;;;;14.70;9.68;;;24.30;51.50;;;;;;6083911;28;83540;-52
2024/02/29 01:58:46;;;;;;;18.58;10.80;;;24.20;51.80;;;;;;6094134;28;83190;-53
2024/02/29 02:01:46;;;;;;;18.33;9.20;;;24.20;51.60;;;;;;6095513;28;83006;-53
2024/02/29 02:04:47;;;;;;;12.85;8.50;;;24.20;51.60;;;;;;6094262;28;82908;-51
2024/02/29 02:07:47;;;;;;;15.50;10.40;;;24.20;51.70;;;;;;6092761;28;80218;-50
2024/02/29 02:10:48;;;;;;;17.85;11.05;;;24.20;51.50;;;;;;6089692;28;84606;-54
2024/02/29 02:13:48;;;;;;;15.00;10.27;;;24.30;51.50;;;;;;6093883;28;84001;-51
2024/02/29 02:16:49;;;;;;;13.77;9.40;;;24.20;51.40;;;;;;6097120;28;82911;-52
2024/02/29 02:19:49;;;;;;;14.27;9.77;;;24.20;51.50;;;;;;6097126;28;82890;-53
2024/02/29 02:22:50;;;;;;;13.23;8.77;;;24.20;51.40;;;;;;6100860;28;85052;-53
2024/02/29 02:25:51;;;;;;;15.75;10.23;;;24.20;52.00;;;;;;6095507;28;81426;-54
2024/02/29 02:28:51;;;;;;;17.58;9.80;;;24.20;51.50;;;;;;6101186;28;83442;-52
2024/02/29 02:31:53;;;;;;;15.93;10.60;;;24.20;51.40;;;;;;6104148;28;83634;-54
2024/02/29 02:34:54;;;;;;;14.13;9.45;;;24.20;51.40;;;;;;6104010;28;82826;-53
2024/02/29 02:37:54;;;;;;;15.00;9.82;;;24.20;51.50;;;;;;6105935;28;83428;-55
2024/02/29 02:40:55;;;;;;;14.63;10.18;;;24.20;51.40;;;;;;6104599;28;80448;-53
2024/02/29 02:43:55;;;;;;;12.93;9.15;;;24.20;51.30;;;;;;6103255;28;83200;-53
2024/02/29 02:46:56;;;;;;;17.23;10.93;;;24.20;51.20;;;;;;6106933;28;82969;-54
2024/02/29 02:49:57;;;;;;;18.00;10.10;;;24.20;51.30;;;;;;6100410;28;83317;-54
2024/02/29 02:52:57;;;;;;;19.42;11.48;;;24.20;51.30;;;;;;6091371;28;83571;-54
2024/02/29 02:55:58;;;;;;;16.73;10.05;;;24.10;51.30;;;;;;6102572;28;83735;-53
2024/02/29 02:58:58;;;;;;;17.63;10.75;;;24.10;51.40;;;;;;6103198;28;84055;-53
2024/02/29 03:01:59;;;;;;;14.18;9.52;;;24.10;51.40;;;;;;6103159;28;84473;-53
2024/02/29 03:04:59;;;;;;;16.08;9.48;;;24.10;51.40;;;;;;6106975;28;83302;-54
2024/02/29 03:08:00;;;;;;;13.45;9.13;;;24.20;51.30;;;;;;6106297;28;80162;-50
2024/02/29 03:11:00;;;;;;;15.88;10.43;;;24.10;51.20;;;;;;6107280;28;80341;-51
2024/02/29 03:14:01;;;;;;;15.77;9.60;;;24.20;51.30;;;;;;6106052;28;83315;-53
2024/02/29 03:17:03;;;;;;;14.43;9.32;;;24.20;51.20;;;;;;6094517;28;83374;-54
2024/02/29 03:20:08;;;;;;;14.25;9.80;;;24.20;51.20;;;;;;6086543;28;83316;-51
2024/02/29 03:23:08;;;;;;;13.98;9.18;;;24.20;51.90;;;;;;6083392;28;81246;-53
2024/02/29 03:26:09;;;;;;;15.10;9.23;;;24.20;51.30;;;;;;6095835;28;81703;-50
2024/02/29 03:29:11;;;;;;;13.75;9.43;;;24.30;51.30;;;;;;6094973;28;80535;-51
2024/02/29 03:32:12;;;;;;;15.05;9.07;;;24.20;51.20;;;;;;6079796;28;80959;-50
2024/02/29 03:35:13;;;;;;;13.45;8.90;;;24.20;51.40;;;;;;6086135;28;81017;-52
2024/02/29 03:38:14;;;;;;;15.00;8.95;;;24.20;51.50;;;;;;6100014;28;81761;-54
2024/02/29 03:41:14;;;;;;;12.20;8.07;;;24.20;51.50;;;;;;6098972;28;81032;-50
2024/02/29 03:44:15;;;;;;;12.98;8.77;;;24.20;51.50;;;;;;6107291;28;80880;-52
2024/02/29 03:47:15;;;;;;;11.40;8.40;;;24.20;51.60;;;;;;6095305;28;80754;-52
2024/02/29 03:50:16;;;;;;;11.48;8.05;;;24.20;51.60;;;;;;6106264;28;80674;-53
2024/02/29 03:53:16;;;;;;;12.68;8.25;;;24.20;51.40;;;;;;6084836;28;81138;-51
2024/02/29 03:56:17;;;;;;;13.18;8.52;;;24.20;51.30;;;;;;6089774;28;81308;-53
2024/02/29 03:59:18;;;;;;;9.73;7.35;;;24.20;51.30;;;;;;6101360;28;80572;-53
2024/02/29 04:02:19;;;;;;;9.27;6.68;;;24.20;51.20;;;;;;6095934;28;80982;-51
2024/02/29 04:05:23;;;;;;;13.10;7.88;;;24.20;51.50;;;;;;6103233;28;81248;-51
2024/02/29 04:08:24;;;;;;;10.60;7.10;;;24.20;51.30;;;;;;6097372;28;81130;-54
2024/02/29 04:11:24;;;;;;;10.70;6.43;;;24.20;51.40;;;;;;6095962;28;87554;-53
2024/02/29 04:14:25;;;;;;;9.45;6.32;;;24.20;51.50;;;;;;6099135;28;80530;-53
2024/02/29 04:17:26;;;;;;;12.40;7.60;;;24.20;51.30;;;;;;6091417;28;80377;-58
2024/02/29 04:20:27;;;;;;;11.65;7.60;;;24.20;51.20;;;;;;6098948;28;80443;-60
2024/02/29 04:23:27;;;;;;;10.20;7.18;;;24.30;52.10;;;;;;6099757;28;81979;-53
2024/02/29 04:26:28;;;;;;;9.27;6.80;;;24.20;51.20;;;;;;6096496;28;80598;-54
2024/02/29 04:29:29;;;;;;;10.05;6.43;;;24.20;51.50;;;;;;6093521;28;80541;-53
2024/02/29 04:32:29;;;;;;;8.05;5.35;;;24.10;51.40;;;;;;6085630;28;80973;-55
2024/02/29 04:35:30;;;;;;;10.90;7.00;;;24.20;51.50;;;;;;6105034;28;83451;-58
2024/02/29 04:38:31;;;;;;;10.73;7.15;;;24.10;50.90;;;;;;6106199;28;81005;-57
2024/02/29 04:41:31;;;;;;;10.05;6.72;;;24.10;51.00;;;;;;6092520;28;80957;-56
2024/02/29 04:44:32;;;;;;;10.88;7.30;;;24.10;51.00;;;;;;6102662;28;81650;-58
2024/02/29 04:47:32;;;;;;;7.82;6.32;;;24.10;50.90;;;;;;6103720;28;80302;-57
2024/02/29 04:50:33;;;;;;;9.52;7.13;;;24.10;51.10;;;;;;6104300;28;80824;-59
2024/02/29 04:53:33;;;;;;;10.88;7.07;;;24.10;51.00;;;;;;6096146;28;81153;-56
2024/02/29 04:56:35;;;;;;;9.23;6.55;;;24.10;51.60;;;;;;6094828;28;80718;-54
2024/02/29 04:59:36;;;;;;;11.25;6.85;;;24.10;51.90;;;;;;6099333;28;80878;-58
2024/02/29 05:02:37;;;;;;;10.45;6.85;;;24.20;52.10;;;;;;6090428;28;80428;-55
2024/02/29 05:05:37;;;;;;;9.80;6.90;;;24.20;52.10;;;;;;6084621;28;80426;-60
2024/02/29 05:08:38;;;;;;;10.10;7.20;;;24.20;52.10;;;;;;6095366;28;81533;-59
2024/02/29 05:11:39;;;;;;;11.13;6.72;;;24.20;52.10;;;;;;6095781;28;80466;-63
2024/02/29 05:14:40;;;;;;;17.15;6.50;;;24.20;51.90;;;;;;6095031;28;80392;-56
2024/02/29 05:17:40;;;;;;;15.30;6.90;;;24.20;52.30;;;;;;6092156;28;80881;-57
2024/02/29 05:20:41;;;;;;;12.60;6.40;;;24.20;52.50;;;;;;6099137;28;80872;-54
2024/02/29 05:23:42;;;;;;;11.73;7.30;;;24.20;52.80;;;;;;6094193;28;81283;-56
2024/02/29 05:26:42;;;;;;;10.88;7.30;;;24.20;52.60;;;;;;6095355;28;81092;-50
2024/02/29 05:29:43;;;;;;;11.18;7.38;;;24.30;52.80;;;;;;6081062;28;80854;-58
2024/02/29 05:32:44;;;;;;;15.25;7.85;;;24.30;52.70;;;;;;6088443;28;80501;-55
2024/02/29 05:35:50;;;;;;;22.48;8.38;;;24.30;52.90;;;;;;6097551;28;81037;-52
2024/02/29 05:38:51;;;;;;;15.07;7.88;;;24.30;52.80;;;;;;6085175;28;80516;-59
2024/02/29 05:41:51;;;;;;;18.25;9.27;;;24.30;52.70;;;;;;6079061;28;82049;-49
2024/02/29 05:44:52;;;;;;;14.75;7.82;;;24.30;52.60;;;;;;6093297;28;80534;-53
2024/02/29 05:47:52;;;;;;;25.58;8.98;;;24.20;52.70;;;;;;6079328;28;82274;-53
2024/02/29 05:50:53;;;;;;;11.45;7.75;;;24.20;52.60;;;;;;6077959;28;80512;-55
2024/02/29 05:53:54;;;;;;;15.80;7.90;;;24.20;52.50;;;;;;6071397;28;85382;-53
2024/02/29 05:56:55;;;;;;;19.27;10.10;;;24.10;52.50;;;;;;6087993;28;80363;-58
2024/02/29 05:59:55;;;;;;;26.02;13.93;;;24.10;52.40;;;;;;6093536;28;83148;-62
2024/02/29 06:02:56;;;;;;;29.10;15.80;;;24.00;51.60;;;;;;6092589;28;85754;-58
2024/02/29 06:05:57;;;;;;;36.33;17.80;;;24.00;51.30;;;;;;6088862;28;83670;-58
2024/02/29 06:08:58;;;;;;;38.33;20.05;;;23.90;50.70;;;;;;6089996;28;85708;-58
2024/02/29 06:11:58;;;;;;;39.10;22.20;;;23.80;50.50;;;;;;6095281;28;83805;-58
2024/02/29 06:14:59;;;;;;;41.75;22.95;;;23.70;50.40;;;;;;6090216;28;84758;-57
2024/02/29 06:17:59;;;;;;;40.55;21.83;;;23.70;50.00;;;;;;6097022;28;88359;-58
2024/02/29 06:21:00;;;;;;;37.90;21.10;;;23.60;49.80;;;;;;6088524;28;83703;-57
2024/02/29 06:24:01;;;;;;;40.35;22.33;;;23.60;49.40;;;;;;6089321;28;87845;-58
2024/02/29 06:27:01;;;;;;;38.72;21.77;;;23.50;49.30;;;;;;6098202;28;85495;-58
2024/02/29 06:30:04;;;;;;;38.13;21.55;;;23.50;49.10;;;;;;6101685;28;83077;-58
2024/02/29 06:33:04;;;;;;;34.78;20.33;;;23.40;49.00;;;;;;6101225;28;86637;-58
2024/02/29 06:36:05;;;;;;;38.72;20.02;;;23.40;49.00;;;;;;6091162;28;85274;-57
2024/02/29 06:39:07;;;;;;;40.92;22.23;;;23.40;48.90;;;;;;6092346;28;82799;-58
2024/02/29 06:42:08;;;;;;;39.05;21.55;;;23.40;49.00;;;;;;6087112;28;84002;-57
2024/02/29 06:45:09;;;;;;;37.15;20.27;;;23.40;49.40;;;;;;6094579;28;83416;-60
2024/02/29 06:48:09;;;;;;;38.13;20.92;;;23.40;49.00;;;;;;6095526;28;83903;-60
2024/02/29 06:51:10;;;;;;;34.63;19.98;;;23.30;48.70;;;;;;6098439;28;83078;-58
2024/02/29 06:54:10;;;;;;;40.78;22.20;;;23.30;49.10;;;;;;6092482;28;84892;-59
2024/02/29 06:57:11;;;;;;;36.22;19.48;;;23.30;48.30;;;;;;6094892;28;83165;-60
2024/02/29 07:00:12;;;;;;;36.00;20.08;;;23.30;48.90;;;;;;6082992;28;83922;-59
2024/02/29 07:03:13;;;;;;;32.85;17.45;;;23.30;48.90;;;;;;6089822;28;83127;-61
2024/02/29 07:06:13;;;;;;;30.90;17.98;;;23.30;49.20;;;;;;6096319;28;83142;-60
2024/02/29 07:09:14;;;;;;;29.35;17.58;;;23.30;48.90;;;;;;6084434;28;84767;-60
2024/02/29 07:12:15;;;;;;;31.85;19.00;;;23.30;48.80;;;;;;6097704;28;83313;-56
2024/02/29 07:15:16;;;;;;;28.52;16.88;;;23.40;48.80;;;;;;6097355;28;83704;-58
2024/02/29 07:18:16;;;;;;;27.85;16.25;;;23.40;49.70;;;;;;6101194;28;83291;-58
2024/02/29 07:21:17;;;;;;;28.15;16.65;;;23.40;49.00;;;;;;6096202;28;83278;-59
2024/02/29 07:24:17;;;;;;;25.90;15.35;;;23.40;48.70;;;;;;6079018;28;83798;-60
2024/02/29 07:27:18;;;;;;;28.65;16.45;;;23.40;48.70;;;;;;6102389;28;84604;-59
2024/02/29 07:30:19;;;;;;;26.02;17.35;;;23.40;48.60;;;;;;6106583;28;83591;-60
2024/02/29 07:33:19;;;;;;;28.13;16.20;;;23.40;48.40;;;;;;6095191;28;83199;-60
2024/02/29 07:36:20;;;;;;;30.25;16.65;;;23.40;48.30;;;;;;6096704;28;83526;-58
2024/02/29 07:39:20;;;;;;;31.33;17.38;;;23.40;48.20;;;;;;6097131;28;83552;-58
2024/02/29 07:42:21;;;;;;;26.55;16.52;;;23.50;48.20;;;;;;6087426;28;84591;-58
2024/02/29 07:45:22;;;;;;;26.52;17.10;;;23.40;48.20;;;;;;6082088;28;83748;-57
2024/02/29 07:48:24;;;;;;;27.20;16.20;;;23.50;48.20;;;;;;6092652;28;83399;-57
2024/02/29 07:51:24;;;;;;;25.17;16.30;;;23.60;48.10;;;;;;6092609;28;83897;-58
2024/02/29 07:54:25;;;;;;;25.80;15.18;;;23.60;48.00;;;;;;6089244;28;84034;-59
2024/02/29 07:57:25;;;;;;;22.67;14.32;;;23.70;48.10;;;;;;6093417;28;84426;-62
2024/02/29 08:00:26;;;;;;;22.70;13.68;;;23.70;48.10;;;;;;6081271;28;83121;-61
2024/02/29 08:03:27;;;;;;;22.85;13.60;;;23.70;48.10;;;;;;6080615;28;83551;-61
2024/02/29 08:06:27;;;;;;;23.23;13.65;;;23.80;48.20;;;;;;6077825;28;83245;-61
2024/02/29 08:09:28;;;;;;;20.92;13.23;;;23.80;48.20;;;;;;6091880;28;83211;-61
2024/02/29 08:12:29;;;;;;;20.45;13.32;;;23.80;48.50;;;;;;6105762;28;84712;-61
2024/02/29 08:15:30;;;;;;;20.02;12.80;;;23.80;48.50;;;;;;6097978;28;83477;-61
2024/02/29 08:18:30;;;;;;;19.17;12.57;;;23.80;48.50;;;;;;6085866;28;85057;-61
2024/02/29 08:21:32;;;;;;;19.73;12.77;;;23.90;48.70;;;;;;6099516;28;83959;-62
2024/02/29 08:24:33;;;;;;;20.77;12.32;;;23.80;48.80;;;;;;6096448;28;83163;-61
2024/02/29 08:27:34;;;;;;;18.85;12.10;;;23.80;48.80;;;;;;6099526;28;84971;-61
2024/02/29 08:30:35;;;;;;;18.05;11.82;;;23.90;48.70;;;;;;6081493;28;83020;-59
2024/02/29 08:33:35;;;;;;;22.20;12.10;;;24.00;49.00;;;;;;6081217;28;83020;-59
2024/02/29 08:36:36;;;;;;;22.35;11.73;;;23.90;49.30;;;;;;6075798;28;83096;-59
2024/02/29 08:39:40;;;;;;;22.20;12.88;;;24.00;49.20;;;;;;6092797;28;83092;-60
2024/02/29 08:42:40;;;;;;;25.90;12.40;;;24.00;49.00;;;;;;6093170;28;83107;-61
2024/02/29 08:45:41;;;;;;;24.83;11.70;;;24.10;49.10;;;;;;6079739;28;82980;-65
2024/02/29 08:48:42;;;;;;;28.67;10.77;;;24.10;49.10;;;;;;6079900;28;85986;-60
2024/02/29 08:51:43;;;;;;;23.48;11.18;;;24.10;49.90;;;;;;6081259;28;84161;-60
2024/02/29 08:54:44;;;;;;;22.88;11.23;;;24.20;49.40;;;;;;6085426;28;83056;-59
2024/02/29 08:57:44;;;;;;;43.47;11.13;;;24.20;49.30;;;;;;6095057;28;83153;-60
2024/02/29 09:00:45;;;;;;;27.10;11.10;;;24.30;49.30;;;;;;6087802;28;85648;-59
2024/02/29 09:03:45;;;;;;;25.00;10.77;;;24.30;49.30;;;;;;6096476;28;83585;-59
2024/02/29 09:06:46;;;;;;;24.30;11.38;;;24.30;49.70;;;;;;6093643;28;83538;-60
2024/02/29 09:09:46;;;;;;;17.10;10.25;;;24.30;49.30;;;;;;6098696;28;83278;-60
2024/02/29 09:12:47;;;;;;;16.13;10.52;;;24.40;49.30;;;;;;6097932;28;83324;-60
2024/02/29 09:15:48;;;;;;;18.65;11.60;;;24.40;49.30;;;;;;6090917;28;83957;-59
2024/02/29 09:18:48;;;;;;;16.15;10.70;;;24.40;49.50;;;;;;6096701;28;83433;-59
2024/02/29 09:21:49;;;;;;;16.83;10.23;;;24.40;49.30;;;;;;6094459;28;86531;-61
2024/02/29 09:24:49;;;;;;;16.85;11.20;;;24.40;49.40;;;;;;6096876;28;84424;-61
2024/02/29 09:27:50;;;;;;;15.60;11.13;;;24.40;49.30;;;;;;6099942;28;84211;-61
2024/02/29 09:30:50;;;;;;;17.30;10.32;;;24.40;49.30;;;;;;6092160;28;83113;-63
2024/02/29 09:33:53;;;;;;;14.05;10.27;;;24.50;49.40;;;;;;6086849;28;85502;-60
2024/02/29 09:36:54;;;;;;;17.73;11.38;;;24.40;49.50;;;;;;6100376;28;83431;-61
2024/02/29 09:39:54;;;;;;;16.83;10.77;;;24.50;49.30;;;;;;6089612;28;83524;-60
2024/02/29 09:42:55;;;;;;;16.35;10.57;;;24.50;49.40;;;;;;6078820;28;89191;-57
2024/02/29 09:45:55;;;;;;;17.15;10.70;;;24.50;49.40;;;;;;6078863;28;83636;-60
2024/02/29 09:48:57;;;;;;;15.68;9.80;;;24.50;49.60;;;;;;6086543;28;83007;-58
2024/02/29 09:51:58;;;;;;;17.35;11.68;;;24.50;49.60;;;;;;6097814;28;84755;-61
2024/02/29 09:55:03;;;;;;;18.77;11.32;;;24.60;49.60;;;;;;6071416;28;85095;-61
2024/02/29 09:58:04;;;;;;;;;;;24.60;49.60;;;;;;6076546;28;82928;-61
2024/02/29 10:01:04;;;;;;;16.17;10.90;;;24.60;49.50;;;;;;6106504;28;81813;-62
2024/02/29 10:04:06;;;;;;;18.50;11.20;;;24.70;49.90;;;;;;6093952;28;84251;-61
2024/02/29 10:07:07;;;;;;;18.85;10.77;;;24.70;49.90;;;;;;6089862;28;83204;-61
2024/02/29 10:10:09;;;;;;;18.52;11.50;;;24.70;49.80;;;;;;6075830;28;84100;-61
2024/02/29 10:13:10;;;;;;;14.40;10.80;;;24.70;49.90;;;;;;6093759;28;83712;-60
2024/02/29 10:16:11;;;;;;;24.80;10.60;;;24.70;49.80;;;;;;6095669;28;86709;-60
2024/02/29 10:19:12;;;;;;;19.05;10.77;;;24.70;50.00;;;;;;6094930;28;82924;-58
2024/02/29 10:22:13;;;;;;;29.10;10.98;;;24.70;50.70;;;;;;6087479;28;83140;-60
2024/02/29 10:25:13;;;;;;;15.43;10.57;;;24.70;51.30;;;;;;6086270;28;84718;-59
2024/02/29 10:28:14;;;;;;;17.50;11.10;;;24.70;52.10;;;;;;6084375;28;85830;-61
2024/02/29 10:31:15;;;;;;;19.40;11.20;;;24.70;52.70;;;;;;6100138;28;84424;-61
2024/02/29 10:34:16;;;;;;;15.68;10.10;;;24.60;53.10;;;;;;6097829;28;85859;-60
2024/02/29 10:37:16;;;;;;;15.00;10.68;;;24.70;53.40;;;;;;6089099;28;85524;-60
2024/02/29 10:40:17;;;;;;;13.20;9.60;;;24.60;54.40;;;;;;6085093;28;83582;-63
2024/02/29 10:43:17;;;;;;;12.98;9.68;;;24.60;54.00;;;;;;6107817;28;83730;-61
2024/02/29 10:46:18;;;;;;;18.00;12.00;;;24.60;54.40;;;;;;6095967;28;84169;-60
2024/02/29 10:49:18;;;;;;;13.80;9.98;;;24.60;54.60;;;;;;6094149;28;83767;-60
2024/02/29 10:52:20;;;;;;;16.98;10.50;;;24.60;54.80;;;;;;6083040;28;83035;-61
2024/02/29 10:55:20;;;;;;;16.08;11.18;;;24.60;55.10;;;;;;6090618;28;83439;-61
2024/02/29 10:58:21;;;;;;;16.60;10.90;;;24.60;55.20;;;;;;6092958;28;83716;-62
2024/02/29 11:01:22;;;;;;;17.58;10.98;;;24.50;55.20;;;;;;6096439;28;85760;-59
2024/02/29 11:04:22;;;;;;;16.90;11.13;;;24.50;55.30;;;;;;6099409;28;85029;-62
2024/02/29 11:07:24;;;;;;;13.93;10.20;;;24.50;55.40;;;;;;6101777;28;83987;-61
2024/02/29 11:10:24;;;;;;;14.45;10.18;;;24.50;55.50;;;;;;6081648;28;83208;-60
2024/02/29 11:13:25;;;;;;;14.57;10.48;;;24.50;55.60;;;;;;6079541;28;88689;-61
2024/02/29 11:16:26;;;;;;;15.85;10.38;;;24.50;55.90;;;;;;6083892;28;83863;-60
2024/02/29 11:19:26;;;;;;;15.73;10.40;;;24.50;55.90;;;;;;6082154;28;83142;-60
2024/02/29 11:22:27;;;;;;;15.70;10.73;;;24.50;56.00;;;;;;6085114;28;85721;-60
2024/02/29 11:25:27;;;;;;;15.00;10.07;;;24.50;56.10;;;;;;6087213;28;84549;-60
2024/02/29 11:28:28;;;;;;;17.20;10.15;;;24.50;56.10;;;;;;6086120;28;83730;-60
2024/02/29 11:31:29;;;;;;;16.73;10.63;;;24.40;56.20;;;;;;6085336;28;83087;-59
2024/02/29 11:34:29;;;;;;;18.65;10.05;;;24.40;56.30;;;;;;6082788;28;83287;-60
2024/02/29 11:37:30;;;;;;;15.18;9.77;;;24.40;56.40;;;;;;6091139;28;83714;-60
2024/02/29 11:40:34;;;;;;;14.75;9.93;;;24.40;56.50;;;;;;6088080;28;82375;-60
2024/02/29 11:43:34;;;;;;;17.25;10.60;;;24.40;56.50;;;;;;6087391;28;81403;-60
2024/02/29 11:46:35;;;;;;;14.15;9.95;;;24.40;56.70;;;;;;6098653;28;85864;-59
2024/02/29 11:49:35;;;;;;;15.10;10.45;;;24.40;56.70;;;;;;6104250;28;82967;-60
2024/02/29 11:52:37;;;;;;;19.13;12.20;;;24.30;56.10;;;;;;6097656;28;85580;-59
2024/02/29 11:55:37;;;;;;;16.20;10.15;;;24.30;56.10;;;;;;6091904;28;84895;-60
2024/02/29 11:58:38;;;;;;;15.85;10.75;;;24.30;56.90;;;;;;6101370;28;82970;-59
2024/02/29 12:01:38;;;;;;;16.40;10.40;;;24.30;57.00;;;;;;6101225;28;84232;-58
2024/02/29 12:04:39;;;;;;;17.10;11.23;;;24.30;57.20;;;;;;6090867;28;83451;-59
2024/02/29 12:07:40;;;;;;;20.55;10.52;;;24.30;57.00;;;;;;6081070;28;83844;-61
2024/02/29 12:10:40;;;;;;;18.83;11.45;;;24.30;57.00;;;;;;6089253;28;83861;-60
2024/02/29 12:13:42;;;;;;;14.63;10.60;;;24.30;57.20;;;;;;6080898;28;83793;-60
2024/02/29 12:16:43;;;;;;;17.23;10.88;;;24.40;57.40;;;;;;6092629;28;83960;-59
2024/02/29 12:19:44;;;;;;;15.25;11.00;;;24.40;57.60;;;;;;6097847;28;84422;-60
2024/02/29 12:22:46;;;;;;;18.65;10.85;;;24.40;57.60;;;;;;6100361;28;82955;-59
2024/02/29 12:25:47;;;;;;;18.08;11.23;;;24.40;57.60;;;;;;6103216;28;83127;-60
2024/02/29 12:28:50;;;;;;;15.60;10.82;;;24.40;57.70;;;;;;6101028;28;86407;-58
2024/02/29 12:31:51;;;;;;;16.80;11.25;;;24.50;57.70;;;;;;6103512;28;87714;-59
2024/02/29 12:34:52;;;;;;;15.02;9.95;;;24.50;57.60;;;;;;6094686;28;83268;-59
2024/02/29 12:37:52;;;;;;;16.13;11.23;;;24.50;57.60;;;;;;6093677;28;83427;-58
2024/02/29 12:40:54;;;;;;;16.17;10.77;;;24.50;57.50;;;;;;6101566;28;83924;-59
2024/02/29 12:43:59;;;;;;;17.33;11.90;;;24.50;57.70;;;;;;6093410;28;84080;-60
2024/02/29 12:46:59;;;;;;;14.90;10.13;;;24.50;57.60;;;;;;6088739;28;83562;-59
2024/02/29 12:50:00;;;;;;;16.08;10.50;;;24.60;57.70;;;;;;6088123;28;83605;-59
2024/02/29 12:53:00;;;;;;;15.15;10.60;;;24.60;57.70;;;;;;6089422;28;83024;-60
2024/02/29 12:56:01;;;;;;;17.85;10.80;;;24.70;57.60;;;;;;6095082;28;83216;-59
2024/02/29 12:59:02;;;;;;;14.63;10.38;;;24.80;57.40;;;;;;6092836;28;83703;-58
2024/02/29 13:02:02;;;;;;;23.13;13.32;;;24.80;57.30;;;;;;6093607;28;84879;-61
2024/02/29 13:05:03;;;;;;;21.35;13.70;;;24.80;56.80;;;;;;6088241;28;84793;-63
2024/02/29 13:08:04;;;;;;;27.00;16.00;;;24.80;56.30;;;;;;6099147;28;83703;-61
2024/02/29 13:11:04;;;;;;;32.35;18.52;;;24.80;56.10;;;;;;6098308;28;83422;-61
2024/02/29 13:14:05;;;;;;;31.15;18.55;;;24.80;54.60;;;;;;6097350;28;83112;-62
2024/02/29 13:17:06;;;;;;;34.30;19.83;;;24.80;54.60;;;;;;6093536;28;84315;-60
2024/02/29 13:20:06;;;;;;;37.45;21.33;;;24.80;54.00;;;;;;6103721;28;83338;-61
2024/02/29 13:23:07;;;;;;;36.72;21.02;;;24.80;53.80;;;;;;6093917;28;84669;-58
2024/02/29 13:26:08;;;;;;;35.80;21.17;;;24.70;53.70;;;;;;6086757;28;83295;-57
2024/02/29 13:29:08;;;;;;;38.10;21.30;;;24.80;53.40;;;;;;6085710;28;83474;-57
2024/02/29 13:32:09;;;;;;;40.55;23.50;;;24.80;53.40;;;;;;6084722;28;83379;-57
2024/02/29 13:35:09;;;;;;;38.00;22.67;;;24.70;52.70;;;;;;6089531;28;83866;-57
2024/02/29 13:38:10;;;;;;;41.75;22.65;;;24.70;53.60;;;;;;6082594;28;83679;-56
2024/02/29 13:41:11;;;;;;;38.28;22.05;;;24.70;53.10;;;;;;6090921;28;83185;-57
2024/02/29 13:44:11;;;;;;;44.55;23.88;;;24.70;53.90;;;;;;6084393;28;83450;-58
2024/02/29 13:47:12;;;;;;;41.45;23.10;;;24.70;52.90;;;;;;6089746;28;83580;-57
2024/02/29 13:50:13;;;;;;;39.70;21.95;;;24.60;53.20;;;;;;6087567;28;84225;-57
2024/02/29 13:53:14;;;;;;;39.60;21.95;;;24.70;53.60;;;;;;6093803;28;84231;-56
2024/02/29 13:56:18;;;;;;;40.10;23.40;;;24.70;53.70;;;;;;6093229;28;84563;-57
2024/02/29 13:59:18;;;;;;;37.35;22.67;;;24.60;53.80;;;;;;6086542;28;83709;-56
2024/02/29 14:02:19;;;;;;;37.63;20.73;;;24.60;52.30;;;;;;6090058;28;87656;-57
2024/02/29 14:05:20;;;;;;;36.78;21.55;;;24.50;52.70;;;;;;6092097;28;83201;-55
2024/02/29 14:08:20;;;;;;;33.15;20.30;;;24.50;52.40;;;;;;6076685;28;83253;-57
2024/02/29 14:11:21;;;;;;;38.97;22.00;;;24.50;53.00;;;;;;6077196;28;83502;-57
2024/02/29 14:14:21;;;;;;;38.83;21.55;;;24.50;52.60;;;;;;6088750;28;83168;-55
2024/02/29 14:17:22;;;;;;;37.17;21.02;;;24.40;53.60;;;;;;6091911;28;83230;-56
2024/02/29 14:20:23;;;;;;;42.00;23.08;;;24.40;53.40;;;;;;6099809;28;83372;-56
2024/02/29 14:23:23;;;;;;;38.47;23.05;;;24.40;52.30;;;;;;6100963;28;83715;-56
2024/02/29 14:26:24;;;;;;;39.53;23.90;;;24.40;52.20;;;;;;6075827;28;83274;-57
2024/02/29 14:29:25;;;;;;;32.97;21.25;;;24.30;52.10;;;;;;6100433;28;83496;-57
2024/02/29 14:32:25;;;;;;;40.15;23.38;;;24.30;52.70;;;;;;6103919;28;83237;-58
2024/02/29 14:35:26;;;;;;;41.20;22.77;;;24.30;52.90;;;;;;6086954;28;84969;-54
2024/02/29 14:38:26;;;;;;;42.25;24.00;;;24.30;51.60;;;;;;6098244;28;87363;-57
2024/02/29 14:41:29;;;;;;;36.00;23.25;;;24.30;52.30;;;;;;6095692;28;83764;-56
2024/02/29 14:44:30;;;;;;;39.30;21.83;;;24.30;52.20;;;;;;6093288;28;83749;-57
2024/02/29 14:47:30;;;;;;;36.88;21.80;;;24.30;52.90;;;;;;6100636;28;87819;-56
2024/02/29 14:50:31;;;;;;;39.45;21.08;;;24.30;52.70;;;;;;6102490;28;82955;-56
2024/02/29 14:53:33;;;;;;;33.63;20.42;;;24.30;53.00;;;;;;6103728;28;83285;-56
2024/02/29 14:56:33;;;;;;;35.05;22.60;;;24.30;52.70;;;;;;6102484;28;83794;-56
2024/02/29 14:59:34;;;;;;;36.00;21.48;;;24.20;51.50;;;;;;6102622;28;86200;-58
2024/02/29 15:02:34;;;;;;;33.47;21.58;;;24.20;52.20;;;;;;6093121;28;83468;-56
2024/02/29 15:05:36;;;;;;;33.20;20.55;;;24.20;51.90;;;;;;6102748;28;87600;-59
2024/02/29 15:08:37;;;;;;;29.00;19.25;;;24.20;51.60;;;;;;6101109;28;85590;-57
2024/02/29 15:11:38;;;;;;;34.90;21.10;;;24.10;51.80;;;;;;6095141;28;83673;-56
2024/02/29 15:14:38;;;;;;;29.75;17.92;;;24.10;52.20;;;;;;6094811;28;83592;-59
2024/02/29 15:17:39;;;;;;;29.00;18.38;;;24.00;52.20;;;;;;6096717;28;83591;-60
2024/02/29 15:20:39;;;;;;;28.75;17.63;;;24.10;52.70;;;;;;6100964;28;83377;-59